Time;durP1;ratioP1;P1;durP2;ratioP2;P2;SDS_P1;SDS_P2;PMS_P1;PMS_P2;Temp;Humidity;BMP_temperature;BMP_pressure;BME280_temperature;BME280_humidity;BME280_pressure;Samples;Min_cycle;Max_cycle;Signal;HPM_P1;HPM_P2
2023/05/29 00:00:08;;;;;;;7.25;4.07;;;15.20;99.90;;;;;;4160698;28;20053;-61
2023/05/29 00:02:09;;;;;;;5.22;4.05;;;15.20;99.90;;;;;;4159297;28;20103;-61
2023/05/29 00:04:12;;;;;;;5.38;3.65;;;15.20;99.90;;;;;;4161448;28;20409;-61
2023/05/29 00:06:13;;;;;;;5.53;3.80;;;15.10;99.90;;;;;;4159165;28;20033;-61
2023/05/29 00:08:15;;;;;;;7.15;4.32;;;15.10;99.90;;;;;;4161107;28;20077;-61
2023/05/29 00:10:16;;;;;;;9.40;5.60;;;15.00;99.90;;;;;;4159292;28;20119;-61
2023/05/29 00:12:18;;;;;;;5.93;4.30;;;15.10;99.90;;;;;;4160219;28;20042;-61
2023/05/29 00:14:20;;;;;;;5.57;4.00;;;15.10;99.90;;;;;;4159755;28;20123;-61
2023/05/29 00:16:21;;;;;;;6.65;3.65;;;15.00;99.90;;;;;;4159989;28;20115;-61
2023/05/29 00:18:22;;;;;;;4.82;3.58;;;15.00;99.90;;;;;;4162616;28;20059;-60
2023/05/29 00:20:23;;;;;;;6.50;4.35;;;15.00;99.90;;;;;;4163516;28;20033;-60
2023/05/29 00:22:27;;;;;;;4.45;3.67;;;14.90;99.90;;;;;;4163710;28;20053;-60
2023/05/29 00:24:29;;;;;;;6.55;3.65;;;14.90;99.90;;;;;;4145138;28;20054;-61
2023/05/29 00:26:30;;;;;;;6.15;3.85;;;14.90;99.90;;;;;;4164095;28;20029;-60
2023/05/29 00:28:31;;;;;;;6.55;4.18;;;14.90;99.90;;;;;;4162854;28;20099;-61
2023/05/29 00:30:32;;;;;;;6.45;4.15;;;14.80;99.90;;;;;;4163907;28;20489;-59
2023/05/29 00:32:33;;;;;;;4.72;3.95;;;14.80;99.90;;;;;;4162993;28;20075;-60
2023/05/29 00:34:35;;;;;;;9.77;3.85;;;14.80;99.90;;;;;;4164268;28;20033;-61
2023/05/29 00:36:36;;;;;;;7.85;4.53;;;14.80;99.90;;;;;;4162368;28;20451;-61
2023/05/29 00:38:37;;;;;;;7.05;4.43;;;14.80;99.90;;;;;;4163555;28;20049;-59
2023/05/29 00:40:40;;;;;;;9.77;4.13;;;14.80;99.90;;;;;;4162721;28;20033;-60
2023/05/29 00:42:41;;;;;;;5.55;3.30;;;14.80;99.90;;;;;;4163161;28;20100;-60
2023/05/29 00:44:42;;;;;;;6.07;3.35;;;14.80;99.90;;;;;;4161892;28;20087;-60
2023/05/29 00:46:44;;;;;;;7.85;3.53;;;14.70;99.90;;;;;;4163935;28;20037;-61
2023/05/29 00:48:46;;;;;;;10.02;4.47;;;14.70;99.90;;;;;;4163256;28;20060;-61
2023/05/29 00:50:47;;;;;;;5.53;4.05;;;14.70;99.90;;;;;;4162254;28;20034;-62
2023/05/29 00:52:48;;;;;;;6.60;4.13;;;14.70;99.90;;;;;;4144947;28;20478;-59
2023/05/29 00:54:50;;;;;;;5.30;3.92;;;14.70;99.90;;;;;;4162474;28;20517;-74
2023/05/29 00:56:51;;;;;;;5.50;3.58;;;14.70;99.90;;;;;;4163808;28;20056;-69
2023/05/29 00:58:52;;;;;;;4.13;3.47;;;14.60;99.90;;;;;;4145849;28;20050;-63
2023/05/29 01:00:54;;;;;;;6.78;3.83;;;14.50;99.90;;;;;;4163590;28;20085;-65
2023/05/29 01:02:56;;;;;;;5.55;3.65;;;14.50;99.90;;;;;;4162402;28;20084;-66
2023/05/29 01:04:58;;;;;;;6.65;4.20;;;14.50;99.90;;;;;;4163749;28;20029;-63
2023/05/29 01:07:00;;;;;;;4.22;3.58;;;14.40;99.90;;;;;;4162385;28;20037;-61
2023/05/29 01:09:03;;;;;;;6.13;4.00;;;14.40;99.90;;;;;;4163314;28;20092;-70
2023/05/29 01:11:21;;;;;;;7.53;4.78;;;14.40;99.90;;;;;;4162248;28;20487;-62
2023/05/29 01:13:27;;;;;;;4.75;3.40;;;14.30;99.90;;;;;;4161323;28;20037;-71
2023/05/29 01:15:41;;;;;;;6.32;3.80;;;14.30;99.90;;;;;;4159875;28;20041;-66
2023/05/29 01:18:02;;;;;;;7.55;4.03;;;14.30;99.90;;;;;;4162587;28;20095;-68
2023/05/29 01:20:41;;;;;;;8.27;4.28;;;14.20;99.90;;;;;;4161679;28;20121;-61
2023/05/29 01:23:03;;;;;;;6.70;3.90;;;14.20;99.90;;;;;;4162957;28;20172;-61
2023/05/29 01:25:17;;;;;;;9.80;5.05;;;14.20;99.90;;;;;;4158108;28;20045;-71
2023/05/29 01:27:21;;;;;;;4.90;3.50;;;14.20;99.90;;;;;;4162757;28;20025;-71
2023/05/29 01:29:26;;;;;;;4.95;3.55;;;14.20;99.90;;;;;;4160643;28;20437;-65
2023/05/29 01:31:28;;;;;;;5.20;3.65;;;14.10;99.90;;;;;;4161714;28;20505;-73
2023/05/29 01:33:29;;;;;;;9.10;3.60;;;14.10;99.90;;;;;;4162199;28;20359;-60
2023/05/29 01:35:30;;;;;;;5.53;4.03;;;14.10;99.90;;;;;;4162296;28;20092;-64
2023/05/29 01:37:31;;;;;;;5.15;3.90;;;14.10;99.90;;;;;;4161977;28;20029;-69
2023/05/29 01:39:33;;;;;;;20.38;4.00;;;14.10;99.90;;;;;;4161966;28;20123;-73
2023/05/29 01:41:35;;;;;;;5.07;3.90;;;14.10;99.90;;;;;;4161191;28;20046;-67
2023/05/29 01:43:37;;;;;;;5.05;3.75;;;14.00;99.90;;;;;;4163211;28;20033;-59
2023/05/29 01:45:39;;;;;;;5.25;3.72;;;14.00;99.90;;;;;;4150849;28;20025;-65
2023/05/29 01:47:40;;;;;;;4.55;3.58;;;14.00;99.90;;;;;;4162160;28;20045;-60
2023/05/29 01:49:42;;;;;;;5.10;3.53;;;14.00;99.90;;;;;;4161654;28;20647;-60
2023/05/29 01:51:43;;;;;;;5.57;3.80;;;13.90;99.90;;;;;;4161563;28;20049;-60
2023/05/29 01:53:44;;;;;;;5.38;3.80;;;13.90;99.90;;;;;;4162185;28;20528;-72
2023/05/29 01:55:46;;;;;;;4.35;3.42;;;13.90;99.90;;;;;;4161162;28;20041;-74
2023/05/29 01:57:48;;;;;;;11.80;4.40;;;13.90;99.90;;;;;;4162061;28;20022;-67
2023/05/29 01:59:50;;;;;;;7.88;4.07;;;13.80;99.90;;;;;;4161526;28;20037;-60
2023/05/29 02:01:51;;;;;;;5.75;4.00;;;13.80;99.90;;;;;;4161458;28;20111;-60
2023/05/29 02:03:52;;;;;;;7.17;3.60;;;13.70;99.90;;;;;;4161638;28;20103;-60
2023/05/29 02:05:54;;;;;;;7.73;4.43;;;13.70;99.90;;;;;;4162170;28;20075;-70
2023/05/29 02:07:55;;;;;;;5.03;4.40;;;13.70;99.90;;;;;;4160632;28;20486;-61
2023/05/29 02:09:56;;;;;;;8.53;4.37;;;13.60;99.90;;;;;;4161929;28;20033;-67
2023/05/29 02:11:57;;;;;;;6.70;4.23;;;13.60;99.90;;;;;;4161272;28;20029;-61
2023/05/29 02:14:01;;;;;;;11.87;4.00;;;13.60;99.90;;;;;;4162463;28;20448;-62
2023/05/29 02:16:03;;;;;;;5.72;3.78;;;13.60;99.90;;;;;;4157369;28;20049;-72
2023/05/29 02:18:04;;;;;;;7.30;3.70;;;13.50;99.90;;;;;;4162563;28;20030;-61
2023/05/29 02:20:07;;;;;;;8.18;4.10;;;13.50;99.90;;;;;;4161503;28;20029;-60
2023/05/29 02:22:08;;;;;;;12.73;4.37;;;13.50;99.90;;;;;;4161072;28;20049;-60
2023/05/29 02:24:09;;;;;;;6.10;3.90;;;13.40;99.90;;;;;;4161327;28;20383;-61
2023/05/29 02:26:14;;;;;;;6.67;3.83;;;13.40;99.90;;;;;;4162004;28;20041;-73
2023/05/29 02:28:15;;;;;;;7.63;4.90;;;13.50;99.90;;;;;;4160218;28;20798;-73
2023/05/29 02:30:16;;;;;;;11.10;4.73;;;13.50;99.90;;;;;;4161175;28;20092;-61
2023/05/29 02:32:17;;;;;;;9.43;3.83;;;13.50;99.90;;;;;;4161709;28;20029;-62
2023/05/29 02:34:19;;;;;;;7.27;4.00;;;13.50;99.90;;;;;;4160351;28;20033;-59
2023/05/29 02:36:20;;;;;;;6.27;4.20;;;13.50;99.90;;;;;;4161808;28;20481;-58
2023/05/29 02:38:21;;;;;;;7.43;4.23;;;13.40;99.90;;;;;;4160738;28;20029;-70
2023/05/29 02:40:22;;;;;;;6.70;4.03;;;13.40;99.90;;;;;;4161888;28;20379;-61
2023/05/29 02:42:25;;;;;;;10.87;4.13;;;13.50;99.90;;;;;;4159953;28;20095;-61
2023/05/29 02:44:26;;;;;;;9.13;4.50;;;13.50;99.90;;;;;;4161255;28;20053;-60
2023/05/29 02:46:27;;;;;;;7.10;4.37;;;13.50;99.90;;;;;;4159833;28;20045;-67
2023/05/29 02:48:29;;;;;;;5.73;3.90;;;13.50;99.90;;;;;;4161894;28;20083;-73
2023/05/29 02:50:30;;;;;;;7.20;3.63;;;13.50;99.90;;;;;;4160767;28;20408;-66
2023/05/29 02:52:34;;;;;;;8.20;4.70;;;13.60;99.90;;;;;;4161206;28;20056;-78
2023/05/29 02:54:35;;;;;;;5.73;3.73;;;13.70;99.90;;;;;;4160054;28;20037;-78
2023/05/29 02:56:37;;;;;;;6.70;3.30;;;13.70;99.90;;;;;;4161601;28;20444;-61
2023/05/29 02:58:38;;;;;;;6.37;3.80;;;13.80;99.90;;;;;;4160796;28;20111;-78
2023/05/29 03:00:39;;;;;;;5.53;4.05;;;13.90;99.90;;;;;;4161227;28;20501;-69
2023/05/29 03:02:41;;;;;;;6.20;4.13;;;14.00;99.90;;;;;;4161024;28;20022;-62
2023/05/29 03:04:42;;;;;;;6.43;3.70;;;14.10;99.90;;;;;;4160364;28;20087;-60
2023/05/29 03:06:43;;;;;;;6.70;3.80;;;14.10;99.90;;;;;;4160447;28;20064;-74
2023/05/29 03:08:44;;;;;;;5.75;3.72;;;14.20;99.90;;;;;;4160455;28;20592;-62
2023/05/29 03:10:47;;;;;;;11.03;4.27;;;14.40;99.90;;;;;;4161808;28;20042;-75
2023/05/29 03:12:48;;;;;;;9.50;4.47;;;14.50;99.90;;;;;;4142225;28;20037;-61
2023/05/29 03:14:49;;;;;;;10.95;4.43;;;14.60;99.90;;;;;;4161728;28;20075;-61
2023/05/29 03:16:50;;;;;;;7.55;4.00;;;14.60;99.90;;;;;;4160115;28;20091;-62
2023/05/29 03:18:51;;;;;;;9.25;4.20;;;14.80;99.90;;;;;;4161474;28;20087;-62
2023/05/29 03:20:54;;;;;;;10.98;4.18;;;14.90;99.90;;;;;;4159734;28;20520;-77
2023/05/29 03:22:56;;;;;;;5.45;4.07;;;15.10;99.90;;;;;;4160357;28;20456;-68
2023/05/29 03:24:57;;;;;;;9.32;4.00;;;15.30;99.90;;;;;;4160186;28;20091;-61
2023/05/29 03:26:58;;;;;;;7.50;4.78;;;15.40;99.90;;;;;;4161333;28;20079;-61
2023/05/29 03:28:59;;;;;;;8.57;4.00;;;15.70;99.90;;;;;;4159625;28;20049;-62
2023/05/29 03:31:01;;;;;;;11.75;4.13;;;15.90;99.90;;;;;;4161043;28;20113;-60
2023/05/29 03:33:03;;;;;;;5.97;4.68;;;16.20;99.90;;;;;;4159945;28;20030;-60
2023/05/29 03:35:04;;;;;;;7.10;4.45;;;16.40;99.90;;;;;;4159564;28;20091;-63
2023/05/29 03:37:06;;;;;;;9.07;4.05;;;16.60;99.90;;;;;;4160823;28;20056;-61
2023/05/29 03:39:07;;;;;;;5.55;3.90;;;16.90;99.90;;;;;;4159959;28;20034;-77
2023/05/29 03:41:08;;;;;;;8.63;5.18;;;17.30;99.90;;;;;;4160436;28;20099;-74
2023/05/29 03:43:09;;;;;;;9.90;4.32;;;17.60;99.90;;;;;;4159186;28;20075;-79
2023/05/29 03:45:10;;;;;;;6.82;3.20;;;17.80;99.90;;;;;;4161661;28;20026;-63
2023/05/29 03:47:12;;;;;;;9.77;3.83;;;18.20;99.90;;;;;;4160399;28;20038;-66
2023/05/29 03:49:13;;;;;;;6.13;3.55;;;18.40;99.90;;;;;;4160625;28;20061;-69
2023/05/29 03:51:14;;;;;;;5.68;3.80;;;18.70;99.90;;;;;;4160336;28;20037;-78
2023/05/29 03:53:15;;;;;;;4.18;3.30;;;18.90;99.90;;;;;;4163745;28;20115;-75
2023/05/29 03:55:16;;;;;;;5.03;3.78;;;19.10;99.90;;;;;;4162866;28;20041;-73
2023/05/29 03:57:17;;;;;;;8.50;3.70;;;19.40;99.90;;;;;;4164520;28;20029;-75
2023/05/29 03:59:19;;;;;;;7.45;3.58;;;19.80;99.90;;;;;;4163191;28;20080;-76
2023/05/29 04:01:20;;;;;;;5.95;3.50;;;20.00;99.90;;;;;;4164138;28;20076;-73
2023/05/29 04:03:21;;;;;;;5.10;2.95;;;20.00;99.90;;;;;;4164391;28;20025;-72
2023/05/29 04:05:23;;;;;;;7.28;3.97;;;20.00;99.90;;;;;;4163319;28;20087;-70
2023/05/29 04:07:24;;;;;;;7.05;3.60;;;20.20;99.90;;;;;;4163676;28;20038;-61
2023/05/29 04:09:28;;;;;;;5.05;3.60;;;20.60;99.90;;;;;;4162883;28;20054;-75
2023/05/29 04:11:29;;;;;;;10.80;3.90;;;20.90;99.90;;;;;;4163680;28;20029;-74
2023/05/29 04:13:30;;;;;;;6.68;3.47;;;21.10;99.90;;;;;;4163214;28;20441;-61
2023/05/29 04:15:33;;;;;;;5.07;3.75;;;21.30;99.90;;;;;;4164277;28;20379;-64
2023/05/29 04:17:34;;;;;;;5.40;3.25;;;21.60;99.90;;;;;;4145605;28;20033;-60
2023/05/29 04:19:36;;;;;;;6.25;3.58;;;21.80;99.90;;;;;;4163370;28;20462;-68
2023/05/29 04:21:37;;;;;;;5.93;3.22;;;22.10;99.90;;;;;;4162159;28;20424;-60
2023/05/29 04:23:38;;;;;;;9.45;4.32;;;22.40;99.90;;;;;;4162984;28;20037;-72
2023/05/29 04:25:39;;;;;;;6.82;4.20;;;22.70;99.90;;;;;;4162741;28;20029;-72
2023/05/29 04:27:41;;;;;;;4.82;3.83;;;22.90;99.90;;;;;;4164320;28;20095;-60
2023/05/29 04:29:42;;;;;;;7.55;3.80;;;23.20;99.90;;;;;;4161161;28;20104;-61
2023/05/29 04:31:44;;;;;;;5.05;3.38;;;23.40;99.90;;;;;;4163563;28;20056;-71
2023/05/29 04:33:45;;;;;;;7.25;3.42;;;23.70;99.90;;;;;;4162264;28;20544;-71
2023/05/29 04:35:48;;;;;;;6.63;3.33;;;23.60;99.90;;;;;;4162599;28;20099;-62
2023/05/29 04:37:49;;;;;;;4.90;3.17;;;23.70;99.90;;;;;;4162107;28;20087;-61
2023/05/29 04:39:51;;;;;;;3.85;3.38;;;23.90;99.90;;;;;;4162292;28;20037;-62
2023/05/29 04:41:52;;;;;;;11.98;4.10;;;24.20;99.90;;;;;;4163372;28;20095;-60
2023/05/29 04:43:55;;;;;;;5.80;3.20;;;24.40;99.90;;;;;;4162313;28;20041;-62
2023/05/29 04:45:56;;;;;;;4.25;3.42;;;24.70;99.90;;;;;;4153227;28;20711;-61
2023/05/29 04:47:57;;;;;;;4.35;2.78;;;24.80;99.90;;;;;;4133234;28;20077;-67
2023/05/29 04:49:59;;;;;;;4.50;2.70;;;24.70;99.90;;;;;;4163240;28;20041;-60
2023/05/29 04:52:02;;;;;;;4.75;3.15;;;24.90;99.90;;;;;;4161793;28;20095;-67
2023/05/29 04:54:03;;;;;;;6.03;3.35;;;25.00;99.90;;;;;;4162896;28;20041;-63
2023/05/29 04:56:05;;;;;;;4.38;2.58;;;25.30;99.90;;;;;;4162333;28;20593;-61
2023/05/29 04:58:06;;;;;;;3.28;2.63;;;25.50;99.90;;;;;;4163379;28;20042;-60
2023/05/29 05:00:13;;;;;;;6.43;2.90;;;25.60;99.90;;;;;;4161347;28;20452;-73
2023/05/29 05:02:15;;;;;;;5.20;3.03;;;25.60;99.90;;;;;;4162957;28;20756;-74
2023/05/29 05:04:16;;;;;;;6.25;3.35;;;25.70;99.80;;;;;;4161766;28;20042;-62
2023/05/29 05:06:17;;;;;;;7.47;3.40;;;25.70;99.80;;;;;;4163182;28;20478;-73
2023/05/29 05:08:18;;;;;;;6.07;3.10;;;26.00;99.40;;;;;;4162502;28;20095;-62
2023/05/29 05:10:19;;;;;;;5.50;3.47;;;26.30;98.80;;;;;;4161140;28;20037;-62
2023/05/29 05:12:20;;;;;;;8.13;3.67;;;26.10;98.30;;;;;;4162032;28;20037;-62
2023/05/29 05:14:22;;;;;;;6.45;3.22;;;26.10;98.10;;;;;;4161708;28;20037;-64
2023/05/29 05:16:23;;;;;;;5.30;3.90;;;26.10;98.20;;;;;;4163417;28;20417;-61
2023/05/29 05:18:24;;;;;;;6.85;4.30;;;26.30;97.80;;;;;;4162020;28;20099;-61
2023/05/29 05:20:25;;;;;;;5.53;3.97;;;26.10;97.40;;;;;;4163159;28;21005;-60
2023/05/29 05:22:26;;;;;;;5.68;3.88;;;25.90;97.30;;;;;;4161336;28;20091;-70
2023/05/29 05:24:27;;;;;;;5.38;3.83;;;25.70;97.40;;;;;;4162272;28;20045;-60
2023/05/29 05:26:28;;;;;;;10.82;4.60;;;25.70;97.30;;;;;;4161376;28;20079;-71
2023/05/29 05:28:29;;;;;;;9.57;4.32;;;25.80;97.20;;;;;;4162867;28;20029;-60
2023/05/29 05:30:31;;;;;;;8.40;4.22;;;26.00;97.00;;;;;;4161683;28;20083;-60
2023/05/29 05:32:32;;;;;;;9.75;4.30;;;26.00;96.80;;;;;;4162965;28;20075;-71
2023/05/29 05:34:33;;;;;;;8.43;5.50;;;26.00;96.70;;;;;;4161579;28;20060;-61
2023/05/29 05:36:34;;;;;;;6.57;5.15;;;26.40;96.50;;;;;;4162610;28;20038;-70
2023/05/29 05:38:35;;;;;;;11.38;5.03;;;26.40;96.40;;;;;;4161643;28;20057;-61
2023/05/29 05:40:37;;;;;;;5.72;4.95;;;26.60;96.30;;;;;;4162062;28;20033;-60
2023/05/29 05:42:38;;;;;;;8.20;4.72;;;26.40;96.10;;;;;;4161811;28;20183;-61
2023/05/29 05:44:39;;;;;;;6.32;4.78;;;26.70;96.20;;;;;;4160872;28;20397;-62
2023/05/29 05:46:40;;;;;;;6.70;4.45;;;27.00;95.90;;;;;;4162892;28;20371;-62
2023/05/29 05:48:41;;;;;;;6.63;4.45;;;27.30;95.30;;;;;;4160880;28;20482;-61
2023/05/29 05:50:42;;;;;;;4.50;4.00;;;27.50;95.20;;;;;;4161677;28;20033;-73
2023/05/29 05:52:43;;;;;;;5.25;4.13;;;27.30;95.10;;;;;;4161484;28;20052;-64
2023/05/29 05:54:44;;;;;;;8.43;4.35;;;27.50;94.90;;;;;;4162573;28;20095;-63
2023/05/29 05:56:46;;;;;;;10.73;4.20;;;27.60;94.80;;;;;;4160780;28;20037;-62
2023/05/29 05:58:48;;;;;;;6.45;4.13;;;27.50;94.80;;;;;;4162429;28;20025;-59
2023/05/29 06:00:52;;;;;;;7.57;4.25;;;27.50;94.80;;;;;;4160677;28;20460;-62
2023/05/29 06:02:53;;;;;;;7.63;4.85;;;27.80;94.70;;;;;;4162020;28;20111;-61
2023/05/29 06:04:54;;;;;;;8.73;4.30;;;27.40;94.30;;;;;;4161292;28;20033;-73
2023/05/29 06:06:55;;;;;;;10.63;4.45;;;26.90;94.50;;;;;;4161321;28;20076;-60
2023/05/29 06:08:58;;;;;;;8.32;4.43;;;26.00;95.00;;;;;;4161145;28;20046;-59
2023/05/29 06:10:59;;;;;;;6.13;3.83;;;25.30;95.60;;;;;;4161453;28;20433;-62
2023/05/29 06:13:00;;;;;;;6.45;4.32;;;25.10;96.30;;;;;;4161632;28;20013;-60
2023/05/29 06:15:03;;;;;;;6.50;3.90;;;24.60;96.70;;;;;;4160543;28;20034;-60
2023/05/29 06:17:05;;;;;;;8.20;5.32;;;24.30;97.50;;;;;;4161958;28;20080;-60
2023/05/29 06:19:06;;;;;;;8.40;4.43;;;24.70;97.60;;;;;;4160191;28;20030;-61
2023/05/29 06:21:07;;;;;;;6.47;4.15;;;24.60;97.30;;;;;;4161134;28;20087;-60
2023/05/29 06:23:08;;;;;;;11.13;4.20;;;24.60;97.40;;;;;;4160799;28;20053;-61
2023/05/29 06:25:09;;;;;;;6.53;3.92;;;24.30;97.70;;;;;;4161518;28;20440;-62
2023/05/29 06:27:10;;;;;;;10.80;5.25;;;23.60;98.30;;;;;;4160883;28;20033;-61
2023/05/29 06:29:11;;;;;;;9.00;4.90;;;23.30;99.00;;;;;;4161342;28;20045;-61
2023/05/29 06:31:12;;;;;;;9.80;5.30;;;22.90;99.30;;;;;;4160835;28;20136;-62
2023/05/29 06:33:13;;;;;;;16.38;5.95;;;22.50;99.90;;;;;;4161199;28;20095;-61
2023/05/29 06:35:15;;;;;;;11.45;5.57;;;22.40;99.90;;;;;;4155245;28;20409;-61
2023/05/29 06:37:16;;;;;;;15.23;5.72;;;22.40;99.90;;;;;;4153387;28;20034;-62
2023/05/29 06:39:18;;;;;;;8.88;5.55;;;22.20;99.90;;;;;;4155378;28;20417;-61
2023/05/29 06:41:19;;;;;;;7.90;5.75;;;21.80;99.90;;;;;;4160790;28;20091;-61
2023/05/29 06:43:20;;;;;;;12.50;6.57;;;21.80;99.90;;;;;;4160751;28;20080;-60
2023/05/29 06:45:22;;;;;;;16.90;6.78;;;21.80;99.90;;;;;;4160848;28;20026;-61
2023/05/29 06:47:23;;;;;;;14.10;6.90;;;21.50;99.90;;;;;;4161964;28;20022;-61
2023/05/29 06:49:24;;;;;;;11.40;7.13;;;21.50;99.90;;;;;;4159866;28;20088;-61
2023/05/29 06:51:25;;;;;;;11.10;7.78;;;21.80;99.90;;;;;;4160636;28;20049;-59
2023/05/29 06:53:26;;;;;;;11.05;6.40;;;21.90;99.90;;;;;;4160753;28;20021;-59
2023/05/29 06:55:27;;;;;;;10.30;5.95;;;21.70;99.90;;;;;;4160641;28;20045;-61
2023/05/29 06:57:28;;;;;;;9.38;6.07;;;21.70;99.90;;;;;;4159602;28;20037;-61
2023/05/29 06:59:29;;;;;;;11.10;5.65;;;21.80;99.90;;;;;;4161174;28;20111;-62
2023/05/29 07:01:30;;;;;;;9.10;5.22;;;22.10;99.90;;;;;;4159835;28;20571;-61
2023/05/29 07:03:32;;;;;;;8.30;5.45;;;22.30;99.90;;;;;;4161732;28;20083;-63
2023/05/29 07:05:33;;;;;;;8.35;5.70;;;22.10;99.90;;;;;;4160250;28;20025;-61
2023/05/29 07:07:34;;;;;;;8.57;5.72;;;22.10;99.90;;;;;;4161142;28;20083;-61
2023/05/29 07:09:35;;;;;;;11.13;5.00;;;22.10;99.90;;;;;;4160102;28;20037;-59
2023/05/29 07:11:38;;;;;;;8.65;4.55;;;22.10;99.90;;;;;;4161324;28;20037;-59
2023/05/29 07:13:39;;;;;;;5.32;4.50;;;22.20;99.90;;;;;;4160185;28;20022;-60
2023/05/29 07:15:40;;;;;;;8.40;5.55;;;22.20;99.90;;;;;;4160401;28;20037;-61
2023/05/29 07:17:41;;;;;;;7.70;4.22;;;22.10;99.90;;;;;;4160711;28;20109;-60
2023/05/29 07:19:42;;;;;;;10.45;4.35;;;22.30;99.90;;;;;;4160000;28;20045;-60
2023/05/29 07:21:43;;;;;;;6.60;3.90;;;22.60;99.90;;;;;;4160443;28;20053;-60
2023/05/29 07:23:45;;;;;;;5.38;3.97;;;22.60;99.90;;;;;;4159577;28;20087;-61
2023/05/29 07:25:46;;;;;;;4.82;3.75;;;22.60;99.90;;;;;;4161900;28;20026;-60
2023/05/29 07:27:47;;;;;;;4.40;3.30;;;22.70;99.90;;;;;;4162574;28;20104;-63
2023/05/29 07:29:48;;;;;;;5.90;3.42;;;22.90;99.90;;;;;;4164376;28;20213;-61
2023/05/29 07:31:51;;;;;;;6.60;3.72;;;23.00;99.90;;;;;;4162870;28;20524;-60
2023/05/29 07:33:52;;;;;;;5.20;3.17;;;23.10;99.90;;;;;;4163841;28;20478;-61
2023/05/29 07:35:53;;;;;;;12.13;3.42;;;23.20;99.90;;;;;;4162396;28;20045;-61
2023/05/29 07:37:54;;;;;;;6.95;2.72;;;23.20;99.50;;;;;;4163734;28;20440;-61
2023/05/29 07:39:55;;;;;;;7.70;2.78;;;23.20;99.00;;;;;;4163390;28;20091;-62
2023/05/29 07:41:56;;;;;;;5.22;3.35;;;23.20;98.60;;;;;;4163985;28;20077;-63
2023/05/29 07:43:57;;;;;;;4.88;2.92;;;23.40;98.60;;;;;;4164100;28;20040;-60
2023/05/29 07:45:59;;;;;;;9.65;3.47;;;23.20;98.10;;;;;;4163350;28;20038;-66
2023/05/29 07:48:00;;;;;;;5.10;2.90;;;23.10;98.10;;;;;;4164258;28;20026;-70
2023/05/29 07:50:01;;;;;;;4.88;3.03;;;23.10;98.40;;;;;;4162255;28;20457;-67
2023/05/29 07:52:03;;;;;;;7.47;3.30;;;23.40;98.60;;;;;;4164428;28;20026;-62
2023/05/29 07:54:05;;;;;;;3.50;2.63;;;23.50;98.00;;;;;;4163342;28;20095;-62
2023/05/29 07:56:06;;;;;;;9.40;2.90;;;23.50;97.90;;;;;;4163377;28;20100;-62
2023/05/29 07:58:09;;;;;;;5.22;3.20;;;23.70;97.70;;;;;;4163427;28;20068;-60
2023/05/29 08:00:14;;;;;;;7.25;2.58;;;23.50;97.30;;;;;;4163654;28;20049;-61
2023/05/29 08:02:16;;;;;;;6.60;2.85;;;23.30;96.80;;;;;;4162046;28;20080;-60
2023/05/29 08:04:17;;;;;;;8.20;2.50;;;23.10;96.40;;;;;;4147388;28;20038;-60
2023/05/29 08:06:18;;;;;;;4.53;3.30;;;23.00;96.00;;;;;;4146238;28;20104;-65
2023/05/29 08:08:20;;;;;;;6.30;3.08;;;22.90;95.90;;;;;;4147359;28;20041;-62
2023/05/29 08:10:21;;;;;;;7.32;2.85;;;22.70;95.90;;;;;;4147672;28;20563;-62
2023/05/29 08:12:22;;;;;;;5.57;2.97;;;22.80;95.80;;;;;;4147526;28;20545;-60
2023/05/29 08:14:23;;;;;;;8.18;2.92;;;22.90;95.80;;;;;;4146712;28;20092;-65
2023/05/29 08:16:24;;;;;;;3.22;2.55;;;22.90;95.70;;;;;;4146578;28;20441;-58
2023/05/29 08:18:26;;;;;;;4.28;2.40;;;23.10;95.50;;;;;;4147498;28;20025;-60
2023/05/29 08:20:27;;;;;;;2.88;2.58;;;23.10;95.80;;;;;;4162569;28;20075;-60
2023/05/29 08:22:29;;;;;;;8.30;2.90;;;23.30;95.70;;;;;;4163942;28;20086;-57
2023/05/29 08:24:31;;;;;;;5.82;2.85;;;23.40;95.60;;;;;;4161641;28;20025;-59
2023/05/29 08:26:32;;;;;;;5.45;2.72;;;23.40;95.60;;;;;;4161939;28;20072;-60
2023/05/29 08:28:33;;;;;;;5.00;3.05;;;23.50;95.70;;;;;;4160774;28;20548;-59
2023/05/29 08:30:34;;;;;;;5.78;3.13;;;23.70;95.60;;;;;;4160920;28;20452;-59
2023/05/29 08:32:35;;;;;;;5.15;2.80;;;24.00;95.80;;;;;;4162804;28;20417;-61
2023/05/29 08:34:36;;;;;;;4.65;3.05;;;24.50;95.30;;;;;;4162441;28;20034;-60
2023/05/29 08:36:40;;;;;;;6.18;2.67;;;24.70;95.00;;;;;;4162393;28;20029;-57
2023/05/29 08:38:41;;;;;;;7.22;3.22;;;24.70;94.70;;;;;;4162259;28;20030;-59
2023/05/29 08:40:43;;;;;;;3.13;2.65;;;24.60;94.40;;;;;;4162498;28;20096;-60
2023/05/29 08:42:48;;;;;;;3.47;2.92;;;24.30;94.60;;;;;;4163336;28;20052;-61
2023/05/29 08:44:54;;;;;;;4.65;2.92;;;24.50;94.50;;;;;;4161470;28;20046;-61
2023/05/29 08:46:56;;;;;;;11.68;3.13;;;24.50;94.40;;;;;;4162386;28;20025;-62
2023/05/29 08:48:59;;;;;;;8.38;2.63;;;24.50;94.00;;;;;;4162498;28;20918;-59
2023/05/29 08:51:02;;;;;;;2.95;2.65;;;24.60;94.10;;;;;;4162357;28;20103;-58
2023/05/29 08:53:04;;;;;;;4.47;2.67;;;24.80;94.10;;;;;;4162806;28;20022;-58
2023/05/29 08:55:05;;;;;;;5.32;2.22;;;24.80;93.60;;;;;;4161593;28;20359;-59
2023/05/29 08:57:07;;;;;;;6.03;2.70;;;24.80;93.60;;;;;;4161713;28;20038;-62
2023/05/29 08:59:10;;;;;;;6.75;3.00;;;25.00;93.10;;;;;;4161049;28;20087;-61
2023/05/29 09:01:12;;;;;;;4.75;2.58;;;24.80;92.80;;;;;;4163642;28;20153;-63
2023/05/29 09:03:13;;;;;;;3.63;2.47;;;24.50;92.90;;;;;;4162083;28;20026;-59
2023/05/29 09:05:14;;;;;;;4.03;2.70;;;24.50;93.10;;;;;;4163644;28;20095;-60
2023/05/29 09:07:18;;;;;;;7.63;2.80;;;24.70;93.10;;;;;;4162184;28;20087;-58
2023/05/29 09:09:20;;;;;;;4.28;2.65;;;24.70;93.30;;;;;;4162550;28;20041;-59
2023/05/29 09:11:21;;;;;;;5.90;2.97;;;24.80;93.10;;;;;;4161778;28;20466;-63
2023/05/29 09:13:22;;;;;;;5.00;2.78;;;24.70;93.10;;;;;;4162774;28;20042;-68
2023/05/29 09:15:24;;;;;;;4.57;2.53;;;24.80;92.80;;;;;;4161803;28;20367;-58
2023/05/29 09:17:33;;;;;;;3.78;2.40;;;24.70;92.70;;;;;;4161767;28;20048;-67
2023/05/29 09:19:40;;;;;;;3.83;2.75;;;24.60;92.40;;;;;;4160674;28;20565;-62
2023/05/29 09:21:41;;;;;;;4.28;2.80;;;24.70;92.30;;;;;;4161996;28;20409;-66
2023/05/29 09:23:42;;;;;;;3.05;2.47;;;24.50;91.70;;;;;;4161023;28;20083;-57
2023/05/29 09:25:43;;;;;;;5.78;2.58;;;24.30;91.70;;;;;;4162272;28;20022;-60
2023/05/29 09:27:44;;;;;;;5.85;2.88;;;24.20;91.40;;;;;;4161775;28;20087;-65
2023/05/29 09:29:46;;;;;;;4.13;3.10;;;24.30;91.60;;;;;;4161310;28;20052;-66
2023/05/29 09:31:47;;;;;;;5.10;2.55;;;24.40;91.90;;;;;;4161766;28;20379;-63
2023/05/29 09:33:50;;;;;;;5.30;2.25;;;24.30;91.50;;;;;;4161546;28;20021;-61
2023/05/29 09:35:51;;;;;;;5.30;2.47;;;24.40;91.20;;;;;;4162586;28;20099;-64
2023/05/29 09:37:52;;;;;;;5.07;3.40;;;24.40;91.40;;;;;;4161636;28;20038;-64
2023/05/29 09:39:53;;;;;;;3.90;2.40;;;24.50;91.20;;;;;;4162222;28;20056;-62
2023/05/29 09:41:54;;;;;;;4.50;2.85;;;24.70;91.30;;;;;;4162081;28;20064;-63
2023/05/29 09:43:56;;;;;;;4.13;2.65;;;24.80;90.90;;;;;;4162393;28;20038;-68
2023/05/29 09:45:58;;;;;;;4.60;2.67;;;24.60;90.80;;;;;;4161528;28;20033;-57
2023/05/29 09:47:59;;;;;;;6.20;2.45;;;24.50;90.90;;;;;;4162314;28;20581;-60
2023/05/29 09:50:01;;;;;;;9.43;3.22;;;24.30;90.40;;;;;;4157798;28;20108;-67
2023/05/29 09:52:02;;;;;;;4.07;2.65;;;24.30;90.70;;;;;;4160002;28;20486;-65
2023/05/29 09:54:17;;;;;;;5.68;2.50;;;24.40;91.00;;;;;;4161440;28;20429;-62
2023/05/29 09:56:18;;;;;;;4.22;2.75;;;24.50;90.60;;;;;;4162277;28;20033;-71
2023/05/29 09:58:20;;;;;;;5.03;2.30;;;24.50;90.80;;;;;;4158344;28;20481;-67
2023/05/29 10:00:21;;;;;;;4.65;2.65;;;24.60;91.00;;;;;;4159648;28;20025;-69
2023/05/29 10:02:24;;;;;;;3.28;2.28;;;24.60;91.00;;;;;;4159126;28;20051;-60
2023/05/29 10:04:25;;;;;;;7.38;3.00;;;24.80;91.00;;;;;;4161763;28;20034;-68
2023/05/29 10:06:29;;;;;;;9.00;2.78;;;25.00;90.70;;;;;;4161090;28;20569;-70
2023/05/29 10:08:33;;;;;;;3.80;2.72;;;25.00;90.30;;;;;;4160467;28;20433;-65
2023/05/29 10:10:38;;;;;;;4.95;3.20;;;25.10;90.30;;;;;;4160903;28;20119;-61
2023/05/29 10:12:44;;;;;;;5.32;2.45;;;25.20;90.00;;;;;;4160254;28;20049;-67
2023/05/29 10:14:48;;;;;;;3.15;2.38;;;25.20;89.70;;;;;;4160807;28;20482;-64
2023/05/29 10:16:52;;;;;;;3.75;2.10;;;25.30;89.10;;;;;;4160835;28;20030;-60
2023/05/29 10:18:55;;;;;;;5.18;2.42;;;25.20;88.80;;;;;;4160787;28;20034;-61
2023/05/29 10:20:58;;;;;;;6.05;2.40;;;25.20;89.10;;;;;;4159854;28;20025;-61
2023/05/29 10:23:02;;;;;;;3.22;2.67;;;25.30;89.50;;;;;;4160734;28;20424;-66
2023/05/29 10:25:05;;;;;;;4.00;2.50;;;25.20;88.40;;;;;;4154482;28;20532;-65
2023/05/29 10:27:06;;;;;;;3.72;2.58;;;25.30;89.00;;;;;;4161735;28;20033;-70
2023/05/29 10:29:41;;;;;;;3.53;2.20;;;25.40;88.20;;;;;;4159164;28;20037;-61
2023/05/29 10:31:48;;;;;;;2.55;2.22;;;25.40;86.40;;;;;;4158261;28;20029;-59
2023/05/29 10:34:14;;;;;;;4.15;2.63;;;25.50;87.60;;;;;;4151902;28;20033;-58